LVKKW SGAS-SARC
Flight info
| Callsign | LVKKW |
|---|---|
| Flight time | N/A |
| Altitude | 18000 |
| Route | ARPAS ARPAS A428 DIGET DIGET1V |
| Aircraft | BE20/L-SDFGR/G |
Departure
| Time | N/A |
|---|---|
| Airport | Silvio Pettirossi International Airport (SGAS) |
Arrival
| Time | 2026-04-25 02:53 |
|---|---|
| Airport | Corrientes Airport (SARC) |
| Time | Latitude | Longitude | Altitude | Speed | Heading |
|---|---|---|---|---|---|
| 2026-04-25 02:46 | -27.18115 | -58.72696 | 1973 ft | 158 kts | 156° |
| 2026-04-25 02:46 | -27.19168 | -58.72369 | 1976 ft | 154 kts | 173° |
| 2026-04-25 02:46 | -27.20240 | -58.72416 | 1984 ft | 155 kts | 190° |
| 2026-04-25 02:47 | -27.21312 | -58.72611 | 1987 ft | 155 kts | 187° |
| 2026-04-25 02:47 | -27.22382 | -58.72765 | 1987 ft | 155 kts | 186° |
| 2026-04-25 02:47 | -27.23459 | -58.72949 | 1987 ft | 156 kts | 188° |
| 2026-04-25 02:47 | -27.24528 | -58.73137 | 1989 ft | 156 kts | 188° |
| 2026-04-25 02:48 | -27.25616 | -58.73327 | 1992 ft | 157 kts | 188° |
| 2026-04-25 02:48 | -27.26667 | -58.73497 | 2106 ft | 153 kts | 184° |
| 2026-04-25 02:48 | -27.27799 | -58.73626 | 1860 ft | 168 kts | 183° |
| 2026-04-25 02:48 | -27.28956 | -58.73767 | 1929 ft | 165 kts | 190° |
| 2026-04-25 02:49 | -27.30103 | -58.73941 | 1985 ft | 161 kts | 182° |
| 2026-04-25 02:49 | -27.31198 | -58.74090 | 2076 ft | 157 kts | 187° |
| 2026-04-25 02:49 | -27.32297 | -58.74285 | 2075 ft | 160 kts | 188° |
| 2026-04-25 02:49 | -27.33404 | -58.74466 | 2054 ft | 163 kts | 187° |
| 2026-04-25 02:50 | -27.34528 | -58.74635 | 2102 ft | 158 kts | 186° |
| 2026-04-25 02:50 | -27.35637 | -58.74839 | 1689 ft | 164 kts | 191° |
| 2026-04-25 02:50 | -27.36692 | -58.75064 | 1617 ft | 150 kts | 185° |
| 2026-04-25 02:50 | -27.37739 | -58.75156 | 1350 ft | 150 kts | 185° |
| 2026-04-25 02:51 | -27.38772 | -58.75334 | 1171 ft | 151 kts | 187° |
| 2026-04-25 02:51 | -27.39829 | -58.75468 | 996 ft | 157 kts | 184° |
| 2026-04-25 02:51 | -27.40110 | -58.75497 | 928 ft | 157 kts | 183° |
| 2026-04-25 02:51 | -27.40858 | -58.75538 | 880 ft | 148 kts | 185° |
| 2026-04-25 02:52 | -27.41866 | -58.75782 | 609 ft | 147 kts | 192° |
| 2026-04-25 02:52 | -27.42757 | -58.75906 | 402 ft | 115 kts | 186° |
| 2026-04-25 02:52 | -27.43551 | -58.76025 | 244 ft | 113 kts | 187° |
| 2026-04-25 02:52 | -27.44259 | -58.76134 | 204 ft | 81 kts | 187° |
| 2026-04-25 02:53 | -27.44657 | -58.76168 | 204 ft | 36 kts | 256° |
| 2026-04-25 02:53 | -27.44671 | -58.76196 | 204 ft | 0 kts | 326° |
| 2026-04-25 02:54 | -27.44628 | -58.76192 | 204 ft | 16 kts | 10° |
| 2026-04-25 02:54 | -27.44479 | -58.76167 | 204 ft | 24 kts | 6° |
| 2026-04-25 02:54 | -27.44301 | -58.76141 | 204 ft | 27 kts | 8° |
| 2026-04-25 02:54 | -27.44219 | -58.76030 | 204 ft | 20 kts | 96° |
| 2026-04-25 02:55 | -27.44236 | -58.75886 | 204 ft | 17 kts | 96° |
| 2026-04-25 02:55 | -27.44282 | -58.75802 | 204 ft | 12 kts | 190° |
| 2026-04-25 02:55 | -27.44371 | -58.75816 | 204 ft | 12 kts | 188° |
| 2026-04-25 02:55 | -27.44460 | -58.75831 | 204 ft | 13 kts | 187° |
| 2026-04-25 02:56 | -27.44551 | -58.75845 | 204 ft | 13 kts | 188° |
| 2026-04-25 02:56 | -27.44640 | -58.75858 | 204 ft | 13 kts | 188° |
| 2026-04-25 02:56 | -27.44730 | -58.75872 | 204 ft | 13 kts | 187° |
| 2026-04-25 02:56 | -27.44812 | -58.75858 | 204 ft | 11 kts | 115° |
| 2026-04-25 02:57 | -27.44809 | -58.75814 | 204 ft | 2 kts | 21° |
| 2026-04-25 02:57 | -27.44794 | -58.75812 | 204 ft | 0 kts | 7° |